Terminal Aerodrome Forecast
Issued by NWS Corpus Christi, TX

Home | Current Version | Previous Version | Text Only | Print | Product List | Glossary On
Versions: 1 2 3 4 5 6 7 8 9 10 11 12 13 14 15 16 17
000
FTUS44 KCRP 221823 AAA
TAFVCT
TAF AMD
KVCT 221823Z 2218/2318 14008KT P6SM VCTS SCT035CB BKN150
      TEMPO 2219/2221 19020G30KT 3SM TSRA BR BKN025CB OVC080
     FM222200 13011KT P6SM SCT050
     FM230000 12007KT P6SM SCT250
     FM230900 08004KT 5SM BR SCT025
     FM231430 12007KT P6SM VCSH SCT030=

USA.gov is the U.S. government's official web portal to all federal, state and local government web resources and services.